createdAt,value
2022-11-26T00:21:49.542Z,100829.80
2022-11-26T00:24:29.013Z,100828.23
2022-11-26T00:51:04.418Z,100828.92
2022-11-26T00:53:43.903Z,100830.70
2022-11-26T00:56:19.837Z,100837.03
2022-11-26T01:02:10.715Z,100838.55
2022-11-26T01:04:50.323Z,100838.68
2022-11-26T01:07:19.074Z,100842.35
2022-11-26T01:09:49.062Z,100844.20
2022-11-26T01:18:56.600Z,100853.40
2022-11-26T01:21:27.860Z,100852.32
2022-11-26T01:23:56.222Z,100856.45
2022-11-26T01:26:27.402Z,100855.10
2022-11-26T01:28:56.183Z,100852.46
2022-11-26T01:31:27.076Z,100855.50
2022-11-26T01:33:56.565Z,100855.04
2022-11-26T01:37:20.701Z,100854.52
2022-11-26T01:39:48.261Z,100854.38
2022-11-26T01:42:33.221Z,100855.65
2022-11-26T01:45:02.426Z,100856.83
2022-11-26T01:47:34.301Z,100858.48
2022-11-26T01:50:29.161Z,100855.83
2022-11-26T01:53:34.030Z,100860.02
2022-11-26T01:56:46.413Z,100859.73
2022-11-26T02:02:58.455Z,100859.43
2022-11-26T02:05:31.631Z,100856.13
2022-11-26T02:08:03.400Z,100859.80
2022-11-26T02:10:35.491Z,100865.98
2022-11-26T02:16:47.067Z,100861.18
2022-11-26T02:19:17.565Z,100858.71
2022-11-26T02:21:57.093Z,100859.65
2022-11-26T02:24:41.266Z,100859.57
2022-11-26T02:27:18.633Z,100858.77
2022-11-26T02:30:06.643Z,100857.23
2022-11-26T02:32:50.936Z,100861.73
2022-11-26T02:35:51.017Z,100866.23
2022-11-26T02:42:04.994Z,100866.79
2022-11-26T02:44:45.531Z,100869.30
2022-11-26T02:47:18.441Z,100870.86
2022-11-26T02:49:51.330Z,100869.88
2022-11-26T02:52:21.652Z,100868.08
2022-11-26T02:54:50.787Z,100871.16
2022-11-26T02:57:23.932Z,100874.64
2022-11-26T02:59:54.652Z,100873.55
2022-11-26T03:02:37.065Z,100875.70
2022-11-26T03:05:09.349Z,100881.48
2022-11-26T03:07:42.087Z,100887.38
2022-11-26T03:10:14.151Z,100890.14
2022-11-26T03:12:45.651Z,100895.41
2022-11-26T03:15:17.218Z,100900.98
2022-11-26T03:17:48.133Z,100901.02
2022-11-26T03:20:20.283Z,100904.82
2022-11-26T03:22:48.489Z,100902.08
2022-11-26T06:45:50.900Z,101071.95
2022-11-26T07:05:00.285Z,101087.55
2022-11-26T07:07:39.714Z,101088.36
2022-11-26T07:30:04.965Z,101103.26
2022-11-26T07:33:23.677Z,101100.59
2022-11-26T07:59:56.102Z,101125.36
2022-11-26T08:19:36.506Z,101145.17
2022-11-26T08:25:26.595Z,101153.06
2022-11-26T08:31:47.923Z,101152.17
2022-11-26T08:34:35.064Z,101151.23
2022-11-26T08:37:15.591Z,101153.98
2022-11-26T08:40:00.597Z,101152.45
2022-11-26T08:42:41.995Z,101152.89
2022-11-26T08:45:10.662Z,101154.48
2022-11-26T08:47:43.592Z,101154.95
2022-11-26T08:50:13.916Z,101159.66
2022-11-26T08:52:44.184Z,101161.02
2022-11-26T08:55:12.114Z,101162.75
2022-11-26T08:57:42.195Z,101166.44
2022-11-26T09:00:14.301Z,101166.05
2022-11-26T09:02:43.839Z,101172.31
2022-11-26T09:05:16.065Z,101176.30
2022-11-26T09:07:48.927Z,101183.77
2022-11-26T09:10:23.692Z,101186.19
2022-11-26T09:12:53.943Z,101191.24
2022-11-26T09:15:23.866Z,101195.80
2022-11-26T09:17:51.755Z,101195.19
2022-11-26T09:20:19.735Z,101197.00
2022-11-26T09:22:47.548Z,101199.27
2022-11-26T09:25:17.408Z,101202.21
2022-11-26T09:27:46.764Z,101201.33
2022-11-26T09:30:16.713Z,101197.13
2022-11-26T09:32:46.434Z,101192.16
2022-11-26T09:35:14.646Z,101195.16
2022-11-26T09:37:51.262Z,101197.81
2022-11-26T09:40:20.688Z,101198.04
2022-11-26T09:43:01.956Z,101200.23
2022-11-26T09:45:41.944Z,101199.89
2022-11-26T09:48:19.353Z,101204.70
2022-11-26T09:51:06.555Z,101206.96
2022-11-26T09:53:44.114Z,101206.41
2022-11-26T09:56:32.266Z,101206.02
2022-11-26T09:59:07.016Z,101208.56
2022-11-26T10:01:46.320Z,101206.04
2022-11-26T10:04:37.405Z,101208.92
2022-11-26T10:07:28.458Z,101211.69
2022-11-26T10:10:19.016Z,101215.39
2022-11-26T10:13:19.426Z,101217.70
2022-11-26T10:16:02.373Z,101220.73
2022-11-26T10:19:07.714Z,101221.00
2022-11-26T10:21:58.739Z,101229.16
2022-11-26T10:24:54.875Z,101231.92
2022-11-26T10:27:37.045Z,101235.77
2022-11-26T10:30:24.615Z,101240.65
2022-11-26T10:32:55.115Z,101241.33
2022-11-26T10:35:29.324Z,101238.27
2022-11-26T10:38:00.207Z,101240.73
2022-11-26T10:41:34.898Z,101242.60
2022-11-26T10:43:56.913Z,101244.20
2022-11-26T10:49:51.283Z,101240.51
2022-11-26T11:02:40.978Z,101236.77
2022-11-26T11:06:14.657Z,101237.69
2022-11-26T11:22:26.274Z,101247.48
2022-11-26T11:53:43.724Z,101254.23
2022-11-26T11:56:25.112Z,101255.53
2022-11-26T11:59:24.587Z,101254.16
2022-11-26T12:02:04.132Z,101256.02
2022-11-26T12:52:31.134Z,101277.84
2022-11-26T12:55:16.132Z,101278.09
2022-11-26T12:58:10.772Z,101274.91
2022-11-26T13:00:39.686Z,101273.67
2022-11-26T13:03:21.876Z,101271.84
2022-11-26T13:06:04.561Z,101270.80
2022-11-26T13:08:56.283Z,101275.23
2022-11-26T13:11:53.096Z,101279.64
2022-11-26T13:15:01.061Z,101284.04
2022-11-26T13:21:04.045Z,101294.02
2022-11-26T13:24:13.506Z,101287.63
2022-11-26T13:27:02.616Z,101292.08
2022-11-26T13:30:15.476Z,101291.80
2022-11-26T13:33:19.225Z,101296.04
2022-11-26T13:36:25.045Z,101296.52
2022-11-26T13:39:43.140Z,101297.48
2022-11-26T13:53:55.734Z,101312.46
2022-11-26T13:56:45.145Z,101310.11
2022-11-26T14:14:32.642Z,101318.37
2022-11-26T14:42:36.123Z,101335.92
2022-11-26T14:45:22.646Z,101340.82
2022-11-26T14:47:54.792Z,101349.30
2022-11-26T14:50:28.625Z,101355.24
2022-11-26T15:00:04.834Z,101365.92
2022-11-26T15:03:03.683Z,101368.56
2022-11-26T15:09:29.392Z,101364.30
2022-11-26T15:13:35.553Z,101363.06
2022-11-26T15:17:03.022Z,101364.83
2022-11-26T15:20:36.275Z,101367.75
2022-11-26T15:23:40.574Z,101371.53
2022-11-26T15:36:10.475Z,101379.48
2022-11-26T15:39:06.915Z,101381.33
2022-11-26T15:42:22.756Z,101378.46
2022-11-26T15:45:04.148Z,101377.55
2022-11-26T15:47:51.325Z,101376.31
2022-11-26T15:50:34.205Z,101378.48
2022-11-26T15:53:14.024Z,101381.36
2022-11-26T15:55:46.647Z,101379.36
2022-11-26T15:58:38.033Z,101378.49
2022-11-26T16:01:15.515Z,101376.30
2022-11-26T16:03:46.905Z,101374.55
2022-11-26T16:06:36.200Z,101373.81
2022-11-26T16:09:17.738Z,101369.64
2022-11-26T16:11:59.543Z,101368.87
2022-11-26T16:14:40.348Z,101374.36
2022-11-26T16:17:22.196Z,101380.02
2022-11-26T16:19:59.679Z,101378.72
2022-11-26T16:22:33.275Z,101378.23
2022-11-26T16:25:18.946Z,101376.24
2022-11-26T16:28:09.723Z,101378.81
2022-11-26T16:30:39.665Z,101379.12
2022-11-26T16:33:11.111Z,101382.65
2022-11-26T16:40:22.035Z,101391.73
2022-11-26T16:43:02.135Z,101392.10
2022-11-26T16:45:58.577Z,101392.17
2022-11-26T16:48:37.191Z,101395.70
2022-11-26T16:51:06.687Z,101402.15
2022-11-26T16:53:36.416Z,101408.36
2022-11-26T16:56:14.734Z,101410.54
2022-11-26T16:58:44.335Z,101414.08
2022-11-26T17:04:47.899Z,101410.64
2022-11-26T17:13:57.280Z,101418.11
2022-11-26T17:26:30.066Z,101418.68
2022-11-26T17:29:02.775Z,101419.05
2022-11-26T17:31:35.376Z,101419.30
2022-11-26T17:37:55.412Z,101422.80
2022-11-26T17:40:42.740Z,101420.52
2022-11-26T17:43:18.145Z,101429.27
2022-11-26T17:46:01.889Z,101426.23
2022-11-26T17:48:41.582Z,101427.58
2022-11-26T17:51:22.037Z,101435.15
2022-11-26T17:53:54.968Z,101436.01
2022-11-26T17:56:24.954Z,101435.65
2022-11-26T17:59:00.982Z,101433.72
2022-11-26T18:01:40.512Z,101431.73
2022-11-26T18:04:27.420Z,101432.66
2022-11-26T18:07:14.135Z,101433.31
2022-11-26T18:10:09.130Z,101433.99
2022-11-26T18:13:15.521Z,101432.96
2022-11-26T18:15:52.329Z,101435.00
2022-11-26T18:18:29.470Z,101440.11
2022-11-26T18:21:06.491Z,101440.04
2022-11-26T18:23:43.156Z,101443.53
2022-11-26T18:26:21.662Z,101442.00
2022-11-26T18:29:07.517Z,101441.48
2022-11-26T18:31:46.713Z,101440.72
2022-11-26T18:34:30.870Z,101441.30
2022-11-26T18:37:13.143Z,101444.86
2022-11-26T18:39:55.013Z,101446.30
2022-11-26T18:42:38.155Z,101449.56
2022-11-26T18:45:17.626Z,101448.75
2022-11-26T18:48:03.106Z,101452.02
2022-11-26T18:50:37.764Z,101456.46
2022-11-26T18:53:10.922Z,101458.51
2022-11-26T18:55:40.135Z,101459.38
2022-11-26T18:58:11.533Z,101463.39
2022-11-26T19:00:54.258Z,101467.04
2022-11-26T19:03:25.753Z,101464.72
2022-11-26T19:06:03.578Z,101466.52
2022-11-26T19:25:09.079Z,101456.50
2022-11-26T19:28:07.907Z,101455.49
2022-11-26T20:13:58.358Z,101472.52
2022-11-26T20:33:26.444Z,101476.73
2022-11-26T22:09:50.510Z,101503.17
2022-11-26T22:12:47.026Z,101500.92
2022-11-26T22:18:50.438Z,101500.77
2022-11-26T22:21:41.583Z,101497.30
2022-11-26T22:24:29.522Z,101494.15
2022-11-26T22:27:37.547Z,101491.18
2022-11-26T23:06:39.974Z,101491.65
2022-11-26T23:12:58.223Z,101485.83
2022-11-26T23:15:57.122Z,101491.47
2022-11-26T23:18:45.512Z,101491.59
2022-11-26T23:22:02.572Z,101487.89
2022-11-26T23:28:00.708Z,101480.23
2022-11-26T23:31:21.246Z,101480.45
2022-11-26T23:34:29.249Z,101478.63
2022-11-26T23:37:26.251Z,101480.36
2022-11-26T23:46:44.350Z,101482.47
2022-11-26T23:49:42.412Z,101476.36
2022-11-26T23:52:59.966Z,101478.42
2022-11-26T23:56:21.905Z,101481.42
2022-11-26T23:59:02.633Z,101478.61
